sensor_id;sensor_type;location;lat;lon;timestamp;pressure;altitude;pressure_sealevel;temperature;humidity
76598;BME280;65486;53.144;18.134;2023-01-13T00:01:39;100177.94;;;7.40;82.42
76598;BME280;65486;53.144;18.134;2023-01-13T00:04:10;100183.55;;;7.42;81.88
76598;BME280;65486;53.144;18.134;2023-01-13T00:06:37;100179.38;;;7.43;83.23
76598;BME280;65486;53.144;18.134;2023-01-13T00:09:04;100182.08;;;7.43;82.37
76598;BME280;65486;53.144;18.134;2023-01-13T00:11:31;100176.41;;;7.44;82.27
76598;BME280;65486;53.144;18.134;2023-01-13T00:13:58;100172.56;;;7.44;82.74
76598;BME280;65486;53.144;18.134;2023-01-13T00:16:25;100172.18;;;7.46;82.31
76598;BME280;65486;53.144;18.134;2023-01-13T00:18:51;100169.58;;;7.46;82.81
76598;BME280;65486;53.144;18.134;2023-01-13T00:21:20;100171.13;;;7.48;82.26
76598;BME280;65486;53.144;18.134;2023-01-13T00:23:50;100166.95;;;7.48;82.73
76598;BME280;65486;53.144;18.134;2023-01-13T00:26:22;100166.86;;;7.47;82.97
76598;BME280;65486;53.144;18.134;2023-01-13T00:28:56;100151.77;;;7.41;83.66
76598;BME280;65486;53.144;18.134;2023-01-13T00:31:27;100158.71;;;7.45;83.28
76598;BME280;65486;53.144;18.134;2023-01-13T00:34:00;100148.61;;;7.39;83.38
76598;BME280;65486;53.144;18.134;2023-01-13T00:36:28;100151.23;;;7.43;83.68
76598;BME280;65486;53.144;18.134;2023-01-13T00:38:57;100153.20;;;7.41;83.85
76598;BME280;65486;53.144;18.134;2023-01-13T00:41:25;100146.50;;;7.41;83.44
76598;BME280;65486;53.144;18.134;2023-01-13T00:43:53;100143.76;;;7.41;83.56
76598;BME280;65486;53.144;18.134;2023-01-13T00:46:20;100146.66;;;7.41;83.43
76598;BME280;65486;53.144;18.134;2023-01-13T00:48:53;100144.22;;;7.42;83.97
76598;BME280;65486;53.144;18.134;2023-01-13T00:51:21;100134.30;;;7.39;84.27
76598;BME280;65486;53.144;18.134;2023-01-13T00:53:49;100139.02;;;7.37;84.03
76598;BME280;65486;53.144;18.134;2023-01-13T00:56:22;100137.20;;;7.37;84.17
76598;BME280;65486;53.144;18.134;2023-01-13T00:58:50;100131.92;;;7.37;84.33
76598;BME280;65486;53.144;18.134;2023-01-13T01:01:22;100130.40;;;7.36;84.60
76598;BME280;65486;53.144;18.134;2023-01-13T01:03:51;100132.05;;;7.37;84.32
76598;BME280;65486;53.144;18.134;2023-01-13T01:06:24;100127.23;;;7.38;84.48
76598;BME280;65486;53.144;18.134;2023-01-13T01:08:53;100117.91;;;7.37;85.52
76598;BME280;65486;53.144;18.134;2023-01-13T01:11:29;100116.30;;;7.35;84.89
76598;BME280;65486;53.144;18.134;2023-01-13T01:14:01;100116.98;;;7.35;84.66
76598;BME280;65486;53.144;18.134;2023-01-13T01:16:32;100109.43;;;7.37;84.35
76598;BME280;65486;53.144;18.134;2023-01-13T01:19:01;100109.20;;;7.39;84.69
76598;BME280;65486;53.144;18.134;2023-01-13T01:21:29;100101.42;;;7.39;84.46
76598;BME280;65486;53.144;18.134;2023-01-13T01:23:59;100096.57;;;7.41;84.33
76598;BME280;65486;53.144;18.134;2023-01-13T01:26:27;100096.68;;;7.44;84.57
76598;BME280;65486;53.144;18.134;2023-01-13T01:28:55;100094.19;;;7.45;85.18
76598;BME280;65486;53.144;18.134;2023-01-13T01:31:26;100092.29;;;7.47;84.94
76598;BME280;65486;53.144;18.134;2023-01-13T01:33:54;100089.30;;;7.47;85.13
76598;BME280;65486;53.144;18.134;2023-01-13T01:36:25;100086.83;;;7.49;84.75
76598;BME280;65486;53.144;18.134;2023-01-13T01:38:55;100086.48;;;7.50;84.80
76598;BME280;65486;53.144;18.134;2023-01-13T01:41:27;100082.59;;;7.49;85.71
76598;BME280;65486;53.144;18.134;2023-01-13T01:43:55;100078.30;;;7.48;85.27
76598;BME280;65486;53.144;18.134;2023-01-13T01:46:38;100078.85;;;7.48;85.69
76598;BME280;65486;53.144;18.134;2023-01-13T01:49:30;100071.14;;;7.47;85.21
76598;BME280;65486;53.144;18.134;2023-01-13T01:56:59;100068.28;;;7.51;85.52
76598;BME280;65486;53.144;18.134;2023-01-13T01:59:30;100063.21;;;7.50;85.59
76598;BME280;65486;53.144;18.134;2023-01-13T02:01:59;100057.36;;;7.52;85.76
76598;BME280;65486;53.144;18.134;2023-01-13T02:04:32;100056.52;;;7.52;86.01
76598;BME280;65486;53.144;18.134;2023-01-13T02:07:00;100051.52;;;7.53;85.80
76598;BME280;65486;53.144;18.134;2023-01-13T02:09:29;100051.66;;;7.52;85.71
76598;BME280;65486;53.144;18.134;2023-01-13T02:11:56;100048.99;;;7.51;86.00
76598;BME280;65486;53.144;18.134;2023-01-13T02:14:43;100045.87;;;7.51;85.84
76598;BME280;65486;53.144;18.134;2023-01-13T02:17:22;100043.60;;;7.52;85.59
76598;BME280;65486;53.144;18.134;2023-01-13T02:26:23;100042.00;;;7.55;86.03
76598;BME280;65486;53.144;18.134;2023-01-13T02:32:10;100038.13;;;7.60;86.02
76598;BME280;65486;53.144;18.134;2023-01-13T02:34:48;100035.38;;;7.61;86.01
76598;BME280;65486;53.144;18.134;2023-01-13T02:37:24;100039.43;;;7.62;85.60
76598;BME280;65486;53.144;18.134;2023-01-13T02:40:00;100036.36;;;7.61;85.68
76598;BME280;65486;53.144;18.134;2023-01-13T02:42:33;100037.50;;;7.60;86.22
76598;BME280;65486;53.144;18.134;2023-01-13T02:45:25;100029.96;;;7.59;85.96
76598;BME280;65486;53.144;18.134;2023-01-13T02:48:00;100031.70;;;7.58;85.87
76598;BME280;65486;53.144;18.134;2023-01-13T02:50:46;100029.00;;;7.58;86.18
76598;BME280;65486;53.144;18.134;2023-01-13T02:53:28;100026.33;;;7.59;85.75
76598;BME280;65486;53.144;18.134;2023-01-13T02:56:03;100030.02;;;7.60;85.93
76598;BME280;65486;53.144;18.134;2023-01-13T02:58:34;100028.33;;;7.61;85.54
76598;BME280;65486;53.144;18.134;2023-01-13T03:01:02;100023.98;;;7.61;86.00
76598;BME280;65486;53.144;18.134;2023-01-13T03:03:31;100022.51;;;7.60;86.39
76598;BME280;65486;53.144;18.134;2023-01-13T03:06:32;100025.23;;;7.59;86.18
76598;BME280;65486;53.144;18.134;2023-01-13T03:09:14;100022.71;;;7.57;86.31
76598;BME280;65486;53.144;18.134;2023-01-13T03:12:02;100020.30;;;7.57;86.30
76598;BME280;65486;53.144;18.134;2023-01-13T03:14:42;100021.66;;;7.57;86.66
76598;BME280;65486;53.144;18.134;2023-01-13T03:17:43;100021.11;;;7.56;86.97
76598;BME280;65486;53.144;18.134;2023-01-13T03:20:28;100018.63;;;7.54;86.47
76598;BME280;65486;53.144;18.134;2023-01-13T03:23:42;100012.36;;;7.53;86.62
76598;BME280;65486;53.144;18.134;2023-01-13T03:26:29;100013.12;;;7.51;86.68
76598;BME280;65486;53.144;18.134;2023-01-13T03:31:39;100010.88;;;7.52;86.63
76598;BME280;65486;53.144;18.134;2023-01-13T03:34:13;100009.79;;;7.52;86.42
76598;BME280;65486;53.144;18.134;2023-01-13T03:36:50;100009.53;;;7.52;86.64
76598;BME280;65486;53.144;18.134;2023-01-13T03:39:26;100009.23;;;7.52;86.94
76598;BME280;65486;53.144;18.134;2023-01-13T03:42:17;100013.97;;;7.52;86.65
76598;BME280;65486;53.144;18.134;2023-01-13T03:44:52;100015.58;;;7.52;86.55
76598;BME280;65486;53.144;18.134;2023-01-13T03:47:29;100006.16;;;7.53;86.96
76598;BME280;65486;53.144;18.134;2023-01-13T03:50:18;100005.92;;;7.55;86.79
76598;BME280;65486;53.144;18.134;2023-01-13T03:52:52;100010.06;;;7.54;86.93
76598;BME280;65486;53.144;18.134;2023-01-13T03:55:27;100010.33;;;7.53;86.62
76598;BME280;65486;53.144;18.134;2023-01-13T03:58:11;100004.34;;;7.53;87.04
76598;BME280;65486;53.144;18.134;2023-01-13T04:00:58;100005.08;;;7.54;86.70
76598;BME280;65486;53.144;18.134;2023-01-13T04:03:30;100008.02;;;7.53;87.04
76598;BME280;65486;53.144;18.134;2023-01-13T04:09:13;100010.42;;;7.55;86.79
76598;BME280;65486;53.144;18.134;2023-01-13T04:11:48;100010.26;;;7.55;86.85
76598;BME280;65486;53.144;18.134;2023-01-13T04:14:18;100008.32;;;7.56;86.81
76598;BME280;65486;53.144;18.134;2023-01-13T04:16:47;100008.70;;;7.57;86.77
76598;BME280;65486;53.144;18.134;2023-01-13T04:19:14;100001.73;;;7.57;87.01
76598;BME280;65486;53.144;18.134;2023-01-13T04:21:44;100002.95;;;7.57;86.79
76598;BME280;65486;53.144;18.134;2023-01-13T04:24:11;99990.16;;;7.57;86.92
76598;BME280;65486;53.144;18.134;2023-01-13T04:26:39;99995.91;;;7.57;86.89
76598;BME280;65486;53.144;18.134;2023-01-13T04:29:07;99995.10;;;7.57;86.80
76598;BME280;65486;53.144;18.134;2023-01-13T04:31:37;99996.03;;;7.58;86.61
76598;BME280;65486;53.144;18.134;2023-01-13T04:34:24;99991.64;;;7.58;86.85
76598;BME280;65486;53.144;18.134;2023-01-13T04:36:51;99987.25;;;7.57;86.78
76598;BME280;65486;53.144;18.134;2023-01-13T04:39:18;99993.20;;;7.56;87.02
76598;BME280;65486;53.144;18.134;2023-01-13T04:41:45;99989.33;;;7.55;86.83
76598;BME280;65486;53.144;18.134;2023-01-13T04:44:25;99995.73;;;7.55;86.88
76598;BME280;65486;53.144;18.134;2023-01-13T04:46:53;99998.54;;;7.55;86.71
76598;BME280;65486;53.144;18.134;2023-01-13T04:49:22;100002.24;;;7.56;86.62
76598;BME280;65486;53.144;18.134;2023-01-13T04:51:50;99999.63;;;7.58;86.54
76598;BME280;65486;53.144;18.134;2023-01-13T04:54:17;100001.91;;;7.59;86.55
76598;BME280;65486;53.144;18.134;2023-01-13T04:56:46;100002.55;;;7.61;86.62
76598;BME280;65486;53.144;18.134;2023-01-13T04:59:13;100005.29;;;7.63;86.38
76598;BME280;65486;53.144;18.134;2023-01-13T05:01:40;100010.54;;;7.64;86.22
76598;BME280;65486;53.144;18.134;2023-01-13T05:04:07;100012.21;;;7.65;86.23
76598;BME280;65486;53.144;18.134;2023-01-13T05:06:34;100008.41;;;7.66;86.41
76598;BME280;65486;53.144;18.134;2023-01-13T05:09:03;100009.73;;;7.66;86.33
76598;BME280;65486;53.144;18.134;2023-01-13T05:11:30;100009.67;;;7.66;86.33
76598;BME280;65486;53.144;18.134;2023-01-13T05:14:18;100011.20;;;7.66;86.13
76598;BME280;65486;53.144;18.134;2023-01-13T05:17:04;100011.83;;;7.65;86.26
76598;BME280;65486;53.144;18.134;2023-01-13T05:19:35;100005.76;;;7.65;86.37
76598;BME280;65486;53.144;18.134;2023-01-13T05:22:06;100010.19;;;7.65;86.32
76598;BME280;65486;53.144;18.134;2023-01-13T05:24:51;100008.59;;;7.65;86.31
76598;BME280;65486;53.144;18.134;2023-01-13T05:27:40;100009.94;;;7.64;86.41
76598;BME280;65486;53.144;18.134;2023-01-13T05:30:07;100014.81;;;7.64;86.33
76598;BME280;65486;53.144;18.134;2023-01-13T05:32:34;100015.62;;;7.63;86.06
76598;BME280;65486;53.144;18.134;2023-01-13T05:35:07;100017.58;;;7.64;86.20
76598;BME280;65486;53.144;18.134;2023-01-13T05:37:34;100017.02;;;7.66;86.05
76598;BME280;65486;53.144;18.134;2023-01-13T05:40:03;100017.61;;;7.67;86.26
76598;BME280;65486;53.144;18.134;2023-01-13T05:43:00;100018.67;;;7.69;85.92
76598;BME280;65486;53.144;18.134;2023-01-13T05:48:13;100020.80;;;7.69;86.06
76598;BME280;65486;53.144;18.134;2023-01-13T05:50:41;100019.31;;;7.70;86.01
76598;BME280;65486;53.144;18.134;2023-01-13T05:53:09;100025.64;;;7.71;85.84
76598;BME280;65486;53.144;18.134;2023-01-13T05:55:43;100024.75;;;7.70;85.97
76598;BME280;65486;53.144;18.134;2023-01-13T05:58:14;100026.86;;;7.71;85.93
76598;BME280;65486;53.144;18.134;2023-01-13T06:00:44;100026.90;;;7.73;85.86
76598;BME280;65486;53.144;18.134;2023-01-13T06:03:12;100025.85;;;7.74;85.91
76598;BME280;65486;53.144;18.134;2023-01-13T06:05:43;100026.48;;;7.74;85.77
76598;BME280;65486;53.144;18.134;2023-01-13T06:08:09;100030.34;;;7.75;85.63
76598;BME280;65486;53.144;18.134;2023-01-13T06:10:37;100031.30;;;7.76;85.65
76598;BME280;65486;53.144;18.134;2023-01-13T06:13:04;100030.84;;;7.77;85.84
76598;BME280;65486;53.144;18.134;2023-01-13T06:15:31;100029.91;;;7.77;85.66
76598;BME280;65486;53.144;18.134;2023-01-13T06:18:01;100033.13;;;7.75;85.77
76598;BME280;65486;53.144;18.134;2023-01-13T06:20:35;100033.60;;;7.74;85.80
76598;BME280;65486;53.144;18.134;2023-01-13T06:23:07;100038.70;;;7.75;85.69
76598;BME280;65486;53.144;18.134;2023-01-13T06:26:11;100036.83;;;7.74;85.82
76598;BME280;65486;53.144;18.134;2023-01-13T06:28:39;100038.14;;;7.73;85.72
76598;BME280;65486;53.144;18.134;2023-01-13T06:31:07;100037.80;;;7.73;85.78
76598;BME280;65486;53.144;18.134;2023-01-13T06:33:42;100038.90;;;7.73;85.72
76598;BME280;65486;53.144;18.134;2023-01-13T06:36:15;100044.85;;;7.73;85.71
76598;BME280;65486;53.144;18.134;2023-01-13T06:38:47;100044.89;;;7.72;85.76
76598;BME280;65486;53.144;18.134;2023-01-13T06:41:17;100042.35;;;7.72;85.89
76598;BME280;65486;53.144;18.134;2023-01-13T06:44:08;100044.38;;;7.72;85.58
76598;BME280;65486;53.144;18.134;2023-01-13T06:46:38;100044.47;;;7.71;85.69
76598;BME280;65486;53.144;18.134;2023-01-13T06:49:07;100045.31;;;7.73;85.73
76598;BME280;65486;53.144;18.134;2023-01-13T06:51:38;100044.69;;;7.74;85.61
76598;BME280;65486;53.144;18.134;2023-01-13T06:54:04;100046.74;;;7.73;85.54
76598;BME280;65486;53.144;18.134;2023-01-13T06:56:31;100048.23;;;7.73;85.47
76598;BME280;65486;53.144;18.134;2023-01-13T06:59:15;100045.06;;;7.74;85.47
76598;BME280;65486;53.144;18.134;2023-01-13T07:01:48;100038.98;;;7.75;85.46
76598;BME280;65486;53.144;18.134;2023-01-13T07:04:15;100046.17;;;7.75;85.56
76598;BME280;65486;53.144;18.134;2023-01-13T07:06:44;100051.32;;;7.76;85.42
76598;BME280;65486;53.144;18.134;2023-01-13T07:09:12;100049.71;;;7.75;85.49
76598;BME280;65486;53.144;18.134;2023-01-13T07:11:39;100055.63;;;7.76;85.39
76598;BME280;65486;53.144;18.134;2023-01-13T07:14:06;100053.93;;;7.77;85.27
76598;BME280;65486;53.144;18.134;2023-01-13T07:16:51;100049.84;;;7.77;85.26
76598;BME280;65486;53.144;18.134;2023-01-13T07:19:21;100056.21;;;7.77;85.18
76598;BME280;65486;53.144;18.134;2023-01-13T07:21:58;100055.58;;;7.77;85.35
76598;BME280;65486;53.144;18.134;2023-01-13T07:24:25;100059.55;;;7.77;85.31
76598;BME280;65486;53.144;18.134;2023-01-13T07:26:53;100061.11;;;7.78;85.25
76598;BME280;65486;53.144;18.134;2023-01-13T07:29:22;100059.30;;;7.77;85.39
76598;BME280;65486;53.144;18.134;2023-01-13T07:31:51;100061.91;;;7.77;85.27
76598;BME280;65486;53.144;18.134;2023-01-13T07:34:18;100066.34;;;7.78;85.41
76598;BME280;65486;53.144;18.134;2023-01-13T07:36:46;100064.07;;;7.79;85.44
76598;BME280;65486;53.144;18.134;2023-01-13T07:39:14;100067.45;;;7.80;85.35
76598;BME280;65486;53.144;18.134;2023-01-13T07:41:41;100067.66;;;7.80;85.31
76598;BME280;65486;53.144;18.134;2023-01-13T07:44:27;100068.72;;;7.80;85.29
76598;BME280;65486;53.144;18.134;2023-01-13T07:46:54;100072.60;;;7.83;85.12
76598;BME280;65486;53.144;18.134;2023-01-13T07:49:22;100078.77;;;7.83;85.28
76598;BME280;65486;53.144;18.134;2023-01-13T07:51:49;100074.70;;;7.85;85.16
76598;BME280;65486;53.144;18.134;2023-01-13T07:54:16;100077.89;;;7.85;85.36
76598;BME280;65486;53.144;18.134;2023-01-13T07:56:43;100079.88;;;7.86;85.12
76598;BME280;65486;53.144;18.134;2023-01-13T07:59:10;100079.02;;;7.86;85.11
76598;BME280;65486;53.144;18.134;2023-01-13T08:01:36;100080.08;;;7.89;85.21
76598;BME280;65486;53.144;18.134;2023-01-13T08:04:04;100077.68;;;7.90;85.03
76598;BME280;65486;53.144;18.134;2023-01-13T08:06:31;100085.91;;;7.92;84.97
76598;BME280;65486;53.144;18.134;2023-01-13T08:08:57;100087.94;;;7.94;84.97
76598;BME280;65486;53.144;18.134;2023-01-13T08:11:24;100091.61;;;7.94;84.92
76598;BME280;65486;53.144;18.134;2023-01-13T08:13:55;100093.85;;;7.96;84.80
76598;BME280;65486;53.144;18.134;2023-01-13T08:16:23;100098.04;;;7.97;84.66
76598;BME280;65486;53.144;18.134;2023-01-13T08:18:50;100100.88;;;7.97;84.70
76598;BME280;65486;53.144;18.134;2023-01-13T08:21:17;100103.02;;;7.99;84.76
76598;BME280;65486;53.144;18.134;2023-01-13T08:23:44;100112.15;;;8.01;84.63
76598;BME280;65486;53.144;18.134;2023-01-13T08:26:18;100110.38;;;8.03;84.64
76598;BME280;65486;53.144;18.134;2023-01-13T08:28:52;100114.98;;;8.05;84.79
76598;BME280;65486;53.144;18.134;2023-01-13T08:31:19;100110.32;;;8.05;84.79
76598;BME280;65486;53.144;18.134;2023-01-13T08:33:47;100113.66;;;8.05;84.94
76598;BME280;65486;53.144;18.134;2023-01-13T08:36:16;100116.80;;;8.05;85.14
76598;BME280;65486;53.144;18.134;2023-01-13T08:38:53;100109.71;;;8.07;85.16
76598;BME280;65486;53.144;18.134;2023-01-13T08:41:22;100111.77;;;8.12;85.11
76598;BME280;65486;53.144;18.134;2023-01-13T08:44:09;100110.97;;;8.14;84.86
76598;BME280;65486;53.144;18.134;2023-01-13T08:46:41;100080.98;;;7.99;84.79
76598;BME280;65486;53.144;18.134;2023-01-13T08:49:08;100119.52;;;8.29;84.70
76598;BME280;65486;53.144;18.134;2023-01-13T08:51:35;100120.20;;;8.35;84.68
76598;BME280;65486;53.144;18.134;2023-01-13T08:54:02;100116.45;;;8.44;84.58
76598;BME280;65486;53.144;18.134;2023-01-13T08:56:29;100118.13;;;8.51;84.22
76598;BME280;65486;53.144;18.134;2023-01-13T08:58:59;100119.36;;;8.60;84.19
76598;BME280;65486;53.144;18.134;2023-01-13T09:01:26;100118.59;;;8.64;83.79
76598;BME280;65486;53.144;18.134;2023-01-13T09:03:53;100122.09;;;8.66;83.77
76598;BME280;65486;53.144;18.134;2023-01-13T09:06:22;100127.33;;;8.70;83.82
76598;BME280;65486;53.144;18.134;2023-01-13T09:08:50;100129.62;;;8.78;83.81
76598;BME280;65486;53.144;18.134;2023-01-13T09:11:19;100127.73;;;8.84;83.66
76598;BME280;65486;53.144;18.134;2023-01-13T09:14:05;100110.48;;;8.81;83.46
76598;BME280;65486;53.144;18.134;2023-01-13T09:16:33;100122.58;;;8.95;83.53
76598;BME280;65486;53.144;18.134;2023-01-13T09:18:59;100128.10;;;8.98;83.52
76598;BME280;65486;53.144;18.134;2023-01-13T09:21:28;100126.16;;;8.97;83.40
76598;BME280;65486;53.144;18.134;2023-01-13T09:23:57;100116.30;;;8.90;83.25
76598;BME280;65486;53.144;18.134;2023-01-13T09:26:27;100129.33;;;8.89;83.42
76598;BME280;65486;53.144;18.134;2023-01-13T09:28:54;100119.96;;;8.89;83.53
76598;BME280;65486;53.144;18.134;2023-01-13T09:31:21;100124.11;;;8.94;83.25
76598;BME280;65486;53.144;18.134;2023-01-13T09:33:48;100120.80;;;8.91;82.97
76598;BME280;65486;53.144;18.134;2023-01-13T09:36:37;100121.38;;;8.85;83.18
76598;BME280;65486;53.144;18.134;2023-01-13T09:39:06;100115.20;;;8.93;82.76
76598;BME280;65486;53.144;18.134;2023-01-13T09:41:41;100115.01;;;9.25;82.41
76598;BME280;65486;53.144;18.134;2023-01-13T09:44:53;100112.14;;;9.80;81.39
76598;BME280;65486;53.144;18.134;2023-01-13T09:53:36;100106.92;;;9.98;79.87
76598;BME280;65486;53.144;18.134;2023-01-13T09:56:05;100100.27;;;9.97;79.70
76598;BME280;65486;53.144;18.134;2023-01-13T09:58:34;100103.05;;;9.91;80.37
76598;BME280;65486;53.144;18.134;2023-01-13T10:01:35;100100.04;;;9.94;80.75
76598;BME280;65486;53.144;18.134;2023-01-13T10:04:11;100096.70;;;9.93;79.94
76598;BME280;65486;53.144;18.134;2023-01-13T10:06:42;100095.20;;;9.94;80.39
76598;BME280;65486;53.144;18.134;2023-01-13T10:09:41;100090.40;;;10.03;80.33
76598;BME280;65486;53.144;18.134;2023-01-13T10:12:23;100091.48;;;10.05;80.32
76598;BME280;65486;53.144;18.134;2023-01-13T10:15:20;100087.12;;;10.10;79.48
76598;BME280;65486;53.144;18.134;2023-01-13T10:18:14;100085.96;;;10.20;79.93
76598;BME280;65486;53.144;18.134;2023-01-13T10:20:50;100080.48;;;10.25;80.18
76598;BME280;65486;53.144;18.134;2023-01-13T10:23:54;100083.92;;;10.31;80.02
76598;BME280;65486;53.144;18.134;2023-01-13T10:26:49;100081.77;;;10.35;78.66
76598;BME280;65486;53.144;18.134;2023-01-13T10:29:25;100076.92;;;10.33;79.06
76598;BME280;65486;53.144;18.134;2023-01-13T10:31:54;100077.42;;;10.28;79.20
76598;BME280;65486;53.144;18.134;2023-01-13T10:34:25;100079.70;;;10.24;79.55
76598;BME280;65486;53.144;18.134;2023-01-13T10:37:00;100077.73;;;10.23;79.81
76598;BME280;65486;53.144;18.134;2023-01-13T10:39:44;100080.58;;;10.20;79.32
76598;BME280;65486;53.144;18.134;2023-01-13T10:42:17;100080.93;;;10.15;79.43
76598;BME280;65486;53.144;18.134;2023-01-13T10:44:47;100079.14;;;10.12;79.68
76598;BME280;65486;53.144;18.134;2023-01-13T10:47:27;100080.75;;;10.13;79.84
76598;BME280;65486;53.144;18.134;2023-01-13T10:52:34;100082.38;;;10.12;79.44
76598;BME280;65486;53.144;18.134;2023-01-13T10:55:30;100081.73;;;10.08;79.60
76598;BME280;65486;53.144;18.134;2023-01-13T10:58:20;100086.63;;;10.08;79.61
76598;BME280;65486;53.144;18.134;2023-01-13T11:00:49;100089.83;;;10.06;79.90
76598;BME280;65486;53.144;18.134;2023-01-13T11:03:38;100088.88;;;10.05;79.86
76598;BME280;65486;53.144;18.134;2023-01-13T11:06:17;100085.00;;;10.01;79.78
76598;BME280;65486;53.144;18.134;2023-01-13T11:08:48;100090.27;;;10.04;79.97
76598;BME280;65486;53.144;18.134;2023-01-13T11:11:27;100090.10;;;10.10;79.71
76598;BME280;65486;53.144;18.134;2023-01-13T11:14:07;100086.48;;;10.10;79.81
76598;BME280;65486;53.144;18.134;2023-01-13T11:19:41;100088.66;;;10.01;79.20
76598;BME280;65486;53.144;18.134;2023-01-13T11:22:24;100082.60;;;9.93;79.36
76598;BME280;65486;53.144;18.134;2023-01-13T11:25:02;100079.35;;;9.83;79.67
76598;BME280;65486;53.144;18.134;2023-01-13T11:30:16;100086.01;;;9.74;80.09
76598;BME280;65486;53.144;18.134;2023-01-13T11:32:59;100080.47;;;9.71;80.62
76598;BME280;65486;53.144;18.134;2023-01-13T11:35:37;100078.54;;;9.61;80.87
76598;BME280;65486;53.144;18.134;2023-01-13T11:38:19;100074.98;;;9.49;81.62
76598;BME280;65486;53.144;18.134;2023-01-13T11:41:00;100064.81;;;9.44;81.98
76598;BME280;65486;53.144;18.134;2023-01-13T11:43:36;100060.78;;;9.38;82.25
76598;BME280;65486;53.144;18.134;2023-01-13T11:46:07;100057.39;;;9.34;82.23
76598;BME280;65486;53.144;18.134;2023-01-13T11:48:39;100058.70;;;9.34;82.33
76598;BME280;65486;53.144;18.134;2023-01-13T11:51:39;100063.88;;;9.34;82.50
76598;BME280;65486;53.144;18.134;2023-01-13T11:54:24;100071.46;;;9.46;82.32
76598;BME280;65486;53.144;18.134;2023-01-13T12:05:36;100070.09;;;9.82;81.46
76598;BME280;65486;53.144;18.134;2023-01-13T12:16:54;100073.33;;;9.73;80.94
76598;BME280;65486;53.144;18.134;2023-01-13T12:19:24;100073.17;;;9.72;81.02
76598;BME280;65486;53.144;18.134;2023-01-13T12:22:13;100072.93;;;9.71;80.93
76598;BME280;65486;53.144;18.134;2023-01-13T12:24:59;100074.39;;;9.68;80.73
76598;BME280;65486;53.144;18.134;2023-01-13T12:29:58;100078.84;;;9.66;81.01
76598;BME280;65486;53.144;18.134;2023-01-13T12:32:54;100076.86;;;9.65;81.09
76598;BME280;65486;53.144;18.134;2023-01-13T12:35:54;100075.41;;;9.65;81.08
76598;BME280;65486;53.144;18.134;2023-01-13T12:38:44;100066.30;;;9.68;81.14
76598;BME280;65486;53.144;18.134;2023-01-13T12:45:15;100067.92;;;9.88;80.39
76598;BME280;65486;53.144;18.134;2023-01-13T12:47:45;100070.40;;;9.92;80.43
76598;BME280;65486;53.144;18.134;2023-01-13T12:52:56;100065.36;;;9.97;79.91
76598;BME280;65486;53.144;18.134;2023-01-13T12:55:32;100070.70;;;9.95;80.27
76598;BME280;65486;53.144;18.134;2023-01-13T12:58:23;100072.15;;;9.92;80.08
76598;BME280;65486;53.144;18.134;2023-01-13T13:01:09;100070.78;;;9.86;80.26
76598;BME280;65486;53.144;18.134;2023-01-13T13:03:38;100070.73;;;9.82;80.13
76598;BME280;65486;53.144;18.134;2023-01-13T13:06:21;100073.71;;;9.75;80.49
76598;BME280;65486;53.144;18.134;2023-01-13T13:09:03;100075.90;;;9.71;80.45
76598;BME280;65486;53.144;18.134;2023-01-13T13:11:35;100079.71;;;9.62;80.85
76598;BME280;65486;53.144;18.134;2023-01-13T13:19:51;100073.61;;;9.44;81.91
76598;BME280;65486;53.144;18.134;2023-01-13T13:22:37;100076.58;;;9.40;82.04
76598;BME280;65486;53.144;18.134;2023-01-13T13:25:20;100085.86;;;9.37;82.18
76598;BME280;65486;53.144;18.134;2023-01-13T13:28:00;100095.98;;;9.29;82.30
76598;BME280;65486;53.144;18.134;2023-01-13T13:30:43;100084.95;;;9.15;82.70
76598;BME280;65486;53.144;18.134;2023-01-13T13:33:49;100094.79;;;9.13;82.59
76598;BME280;65486;53.144;18.134;2023-01-13T13:37:07;100097.34;;;9.09;82.73
76598;BME280;65486;53.144;18.134;2023-01-13T13:39:40;100103.66;;;9.01;83.03
76598;BME280;65486;53.144;18.134;2023-01-13T13:42:36;100103.27;;;8.93;83.17
76598;BME280;65486;53.144;18.134;2023-01-13T13:45:25;100108.39;;;8.88;83.33
76598;BME280;65486;53.144;18.134;2023-01-13T13:48:31;100114.52;;;8.86;83.48
76598;BME280;65486;53.144;18.134;2023-01-13T13:51:26;100108.60;;;8.81;83.84
76598;BME280;65486;53.144;18.134;2023-01-13T13:54:12;100110.70;;;8.79;83.83
76598;BME280;65486;53.144;18.134;2023-01-13T13:56:43;100112.27;;;8.76;83.80
76598;BME280;65486;53.144;18.134;2023-01-13T13:59:15;100108.38;;;8.74;83.89
76598;BME280;65486;53.144;18.134;2023-01-13T14:01:44;100107.42;;;8.68;84.11
76598;BME280;65486;53.144;18.134;2023-01-13T14:04:19;100100.85;;;8.62;84.14
76598;BME280;65486;53.144;18.134;2023-01-13T14:06:54;100088.02;;;8.57;84.32
76598;BME280;65486;53.144;18.134;2023-01-13T14:09:43;100080.83;;;8.52;84.14
76598;BME280;65486;53.144;18.134;2023-01-13T14:12:36;100082.13;;;8.48;84.49
76598;BME280;65486;53.144;18.134;2023-01-13T14:15:34;100090.23;;;8.46;84.37
76598;BME280;65486;53.144;18.134;2023-01-13T14:18:12;100099.39;;;8.42;84.45
76598;BME280;65486;53.144;18.134;2023-01-13T14:20:40;100108.13;;;8.39;84.49
76598;BME280;65486;53.144;18.134;2023-01-13T14:23:15;100106.17;;;8.35;84.59
76598;BME280;65486;53.144;18.134;2023-01-13T14:25:49;100099.15;;;8.30;84.88
76598;BME280;65486;53.144;18.134;2023-01-13T14:28:20;100095.30;;;8.24;84.98
76598;BME280;65486;53.144;18.134;2023-01-13T14:30:49;100095.17;;;8.19;84.60
76598;BME280;65486;53.144;18.134;2023-01-13T14:33:56;100086.90;;;8.16;84.70
76598;BME280;65486;53.144;18.134;2023-01-13T14:36:35;100073.21;;;8.11;84.68
76598;BME280;65486;53.144;18.134;2023-01-13T14:44:33;100102.86;;;8.02;84.55
76598;BME280;65486;53.144;18.134;2023-01-13T14:47:03;100099.51;;;7.99;84.57